Weather at Mary's Harbour Water Aerodrome [CLOSED]

Public forecast

Using degrees Celsius for public forecast. Weather courtesy of forecast.io.

Closest aviation weather report (METAR) to Mary's Harbour Water Aerodrome

Report is more than 6 hours old.

Closest report is Mary's Harbour Airport, 0.9 nm (1.7 km) SW.

2022/11/14 15:00 (retrieved 2 years ago)

CYMH 141500Z AUTO VRB02KT 9SM OVC022 M05/M08 A2994 RMK SLP140

Closest aviation forecast (TAF) to Mary's Harbour Water Aerodrome

Forecast is more than 12 hours old.

Closest forecast is Mary's Harbour Airport, 0.9 nm (1.7 km) SW.

2023/02/22 20:03 Ammendment (retrieved 1 year ago)

TAF AMD TAF AMD CYMH 222000Z 2220/2304 31010KT 2SM -FZDZ -SN BR OVC012 TEMPO 2220/2222 6SM -SN FM222200 31012KT 1 1/2SM -SN OVC012 TEMPO 2222/2304 6SM -SN BECMG 2222/2224 31012G22KT RMK FCST BASED ON AUTO OBS NXT FCST BY 230200Z